sensor_id;sensor_type;location;lat;lon;timestamp;P1;durP1;ratioP1;P2;durP2;ratioP2
75289;SDS011;63883;48.996;20.804;2023-03-24T00:02:20;26.98;;;12.52;;
75289;SDS011;63883;48.996;20.804;2023-03-24T00:04:46;26.30;;;13.73;;
75289;SDS011;63883;48.996;20.804;2023-03-24T00:07:14;23.70;;;12.55;;
75289;SDS011;63883;48.996;20.804;2023-03-24T00:09:41;24.42;;;12.02;;
75289;SDS011;63883;48.996;20.804;2023-03-24T00:12:08;24.67;;;12.50;;
75289;SDS011;63883;48.996;20.804;2023-03-24T00:14:36;23.75;;;11.75;;
75289;SDS011;63883;48.996;20.804;2023-03-24T00:17:06;24.10;;;11.82;;
75289;SDS011;63883;48.996;20.804;2023-03-24T00:19:42;25.40;;;13.48;;
75289;SDS011;63883;48.996;20.804;2023-03-24T00:22:10;22.95;;;12.07;;
75289;SDS011;63883;48.996;20.804;2023-03-24T00:24:40;19.50;;;10.43;;
75289;SDS011;63883;48.996;20.804;2023-03-24T00:27:06;17.67;;;9.85;;
75289;SDS011;63883;48.996;20.804;2023-03-24T00:29:32;14.77;;;8.20;;
75289;SDS011;63883;48.996;20.804;2023-03-24T00:34:25;14.50;;;8.55;;
75289;SDS011;63883;48.996;20.804;2023-03-24T00:36:51;12.77;;;7.72;;
75289;SDS011;63883;48.996;20.804;2023-03-24T00:39:17;11.25;;;7.00;;
75289;SDS011;63883;48.996;20.804;2023-03-24T00:41:44;14.25;;;8.02;;
75289;SDS011;63883;48.996;20.804;2023-03-24T00:44:12;11.93;;;7.20;;
75289;SDS011;63883;48.996;20.804;2023-03-24T00:46:45;12.13;;;7.50;;
75289;SDS011;63883;48.996;20.804;2023-03-24T00:49:23;10.52;;;6.70;;
75289;SDS011;63883;48.996;20.804;2023-03-24T00:52:08;15.27;;;7.72;;
75289;SDS011;63883;48.996;20.804;2023-03-24T00:54:38;13.25;;;8.25;;
75289;SDS011;63883;48.996;20.804;2023-03-24T00:57:07;24.95;;;10.95;;
75289;SDS011;63883;48.996;20.804;2023-03-24T00:59:34;27.23;;;11.38;;
75289;SDS011;63883;48.996;20.804;2023-03-24T01:02:10;17.70;;;9.00;;
75289;SDS011;63883;48.996;20.804;2023-03-24T01:04:38;11.13;;;6.80;;
75289;SDS011;63883;48.996;20.804;2023-03-24T01:07:06;10.40;;;6.47;;
75289;SDS011;63883;48.996;20.804;2023-03-24T01:09:34;11.57;;;6.60;;
75289;SDS011;63883;48.996;20.804;2023-03-24T01:12:01;10.52;;;6.40;;
75289;SDS011;63883;48.996;20.804;2023-03-24T01:14:28;10.40;;;6.43;;
75289;SDS011;63883;48.996;20.804;2023-03-24T01:16:55;12.48;;;6.82;;
75289;SDS011;63883;48.996;20.804;2023-03-24T01:19:21;13.65;;;7.10;;
75289;SDS011;63883;48.996;20.804;2023-03-24T01:21:47;10.95;;;6.57;;
75289;SDS011;63883;48.996;20.804;2023-03-24T01:24:15;10.63;;;6.40;;
75289;SDS011;63883;48.996;20.804;2023-03-24T01:26:41;13.20;;;7.45;;
75289;SDS011;63883;48.996;20.804;2023-03-24T01:29:07;11.45;;;7.00;;
75289;SDS011;63883;48.996;20.804;2023-03-24T01:31:33;12.45;;;7.30;;
75289;SDS011;63883;48.996;20.804;2023-03-24T01:33:58;13.05;;;7.47;;
75289;SDS011;63883;48.996;20.804;2023-03-24T01:36:24;12.88;;;7.38;;
75289;SDS011;63883;48.996;20.804;2023-03-24T01:38:50;14.75;;;8.05;;
75289;SDS011;63883;48.996;20.804;2023-03-24T01:41:16;15.20;;;8.05;;
75289;SDS011;63883;48.996;20.804;2023-03-24T01:43:42;14.27;;;7.70;;
75289;SDS011;63883;48.996;20.804;2023-03-24T01:46:13;12.43;;;7.43;;
75289;SDS011;63883;48.996;20.804;2023-03-24T01:48:55;12.27;;;7.32;;
75289;SDS011;63883;48.996;20.804;2023-03-24T01:51:31;13.52;;;8.25;;
75289;SDS011;63883;48.996;20.804;2023-03-24T01:54:04;12.50;;;7.85;;
75289;SDS011;63883;48.996;20.804;2023-03-24T01:56:40;14.65;;;8.15;;
75289;SDS011;63883;48.996;20.804;2023-03-24T01:59:11;30.33;;;13.98;;
75289;SDS011;63883;48.996;20.804;2023-03-24T02:01:42;20.70;;;9.80;;
75289;SDS011;63883;48.996;20.804;2023-03-24T02:04:08;16.33;;;8.65;;
75289;SDS011;63883;48.996;20.804;2023-03-24T02:06:36;18.70;;;9.05;;
75289;SDS011;63883;48.996;20.804;2023-03-24T02:09:05;15.80;;;8.52;;
75289;SDS011;63883;48.996;20.804;2023-03-24T02:11:33;13.82;;;7.95;;
75289;SDS011;63883;48.996;20.804;2023-03-24T02:14:01;12.77;;;7.50;;
75289;SDS011;63883;48.996;20.804;2023-03-24T02:46:23;10.40;;;5.90;;
75289;SDS011;63883;48.996;20.804;2023-03-24T02:52:03;10.32;;;6.15;;
75289;SDS011;63883;48.996;20.804;2023-03-24T02:57:25;10.20;;;6.20;;
75289;SDS011;63883;48.996;20.804;2023-03-24T03:00:16;10.43;;;5.85;;
75289;SDS011;63883;48.996;20.804;2023-03-24T03:05:56;9.35;;;5.45;;
75289;SDS011;63883;48.996;20.804;2023-03-24T03:08:26;8.50;;;5.57;;
75289;SDS011;63883;48.996;20.804;2023-03-24T03:10:58;10.52;;;5.68;;
75289;SDS011;63883;48.996;20.804;2023-03-24T03:13:38;8.38;;;5.38;;
75289;SDS011;63883;48.996;20.804;2023-03-24T03:16:19;8.52;;;5.25;;
75289;SDS011;63883;48.996;20.804;2023-03-24T03:18:56;8.68;;;5.35;;
75289;SDS011;63883;48.996;20.804;2023-03-24T03:21:29;8.07;;;5.07;;
75289;SDS011;63883;48.996;20.804;2023-03-24T03:23:59;8.95;;;5.75;;
75289;SDS011;63883;48.996;20.804;2023-03-24T03:26:28;9.40;;;6.35;;
75289;SDS011;63883;48.996;20.804;2023-03-24T03:31:30;8.88;;;5.35;;
75289;SDS011;63883;48.996;20.804;2023-03-24T03:34:08;8.70;;;6.10;;
75289;SDS011;63883;48.996;20.804;2023-03-24T03:39:20;9.07;;;5.28;;
75289;SDS011;63883;48.996;20.804;2023-03-24T03:41:55;8.57;;;5.30;;
75289;SDS011;63883;48.996;20.804;2023-03-24T03:44:21;7.00;;;4.70;;
75289;SDS011;63883;48.996;20.804;2023-03-24T03:46:47;11.35;;;5.78;;
75289;SDS011;63883;48.996;20.804;2023-03-24T03:49:13;10.70;;;5.95;;
75289;SDS011;63883;48.996;20.804;2023-03-24T03:51:39;10.48;;;6.43;;
75289;SDS011;63883;48.996;20.804;2023-03-24T03:54:06;11.85;;;6.10;;
75289;SDS011;63883;48.996;20.804;2023-03-24T03:56:36;13.07;;;6.38;;
75289;SDS011;63883;48.996;20.804;2023-03-24T03:59:03;11.82;;;7.13;;
75289;SDS011;63883;48.996;20.804;2023-03-24T04:01:31;10.18;;;6.63;;
75289;SDS011;63883;48.996;20.804;2023-03-24T04:04:09;9.73;;;6.32;;
75289;SDS011;63883;48.996;20.804;2023-03-24T04:09:47;8.57;;;5.38;;
75289;SDS011;63883;48.996;20.804;2023-03-24T04:17:46;13.63;;;8.30;;
75289;SDS011;63883;48.996;20.804;2023-03-24T04:20:21;12.70;;;6.30;;
75289;SDS011;63883;48.996;20.804;2023-03-24T04:28:21;11.85;;;6.90;;
75289;SDS011;63883;48.996;20.804;2023-03-24T04:33:54;10.90;;;5.95;;
75289;SDS011;63883;48.996;20.804;2023-03-24T04:36:46;7.40;;;4.97;;
75289;SDS011;63883;48.996;20.804;2023-03-24T04:39:15;8.38;;;5.13;;
75289;SDS011;63883;48.996;20.804;2023-03-24T04:41:49;8.25;;;5.10;;
75289;SDS011;63883;48.996;20.804;2023-03-24T04:44:17;8.05;;;4.95;;
75289;SDS011;63883;48.996;20.804;2023-03-24T04:46:47;8.80;;;5.10;;
75289;SDS011;63883;48.996;20.804;2023-03-24T04:49:15;7.30;;;5.05;;
75289;SDS011;63883;48.996;20.804;2023-03-24T04:51:41;9.23;;;5.00;;
75289;SDS011;63883;48.996;20.804;2023-03-24T04:54:08;7.22;;;4.78;;
75289;SDS011;63883;48.996;20.804;2023-03-24T04:59:08;7.38;;;4.85;;
75289;SDS011;63883;48.996;20.804;2023-03-24T05:01:33;7.10;;;4.88;;
75289;SDS011;63883;48.996;20.804;2023-03-24T05:04:02;12.25;;;5.25;;
75289;SDS011;63883;48.996;20.804;2023-03-24T05:06:28;7.00;;;4.45;;
75289;SDS011;63883;48.996;20.804;2023-03-24T05:08:55;7.47;;;5.10;;
75289;SDS011;63883;48.996;20.804;2023-03-24T05:11:26;8.70;;;5.40;;
75289;SDS011;63883;48.996;20.804;2023-03-24T05:13:53;7.30;;;5.10;;
75289;SDS011;63883;48.996;20.804;2023-03-24T05:16:19;8.35;;;4.90;;
75289;SDS011;63883;48.996;20.804;2023-03-24T05:18:46;8.55;;;4.97;;
75289;SDS011;63883;48.996;20.804;2023-03-24T05:21:11;10.73;;;5.72;;
75289;SDS011;63883;48.996;20.804;2023-03-24T05:23:37;9.30;;;5.82;;
75289;SDS011;63883;48.996;20.804;2023-03-24T05:26:03;10.75;;;6.30;;
75289;SDS011;63883;48.996;20.804;2023-03-24T05:28:30;9.52;;;5.57;;
75289;SDS011;63883;48.996;20.804;2023-03-24T05:30:56;9.60;;;6.07;;
75289;SDS011;63883;48.996;20.804;2023-03-24T05:33:21;11.25;;;6.03;;
75289;SDS011;63883;48.996;20.804;2023-03-24T05:35:47;11.15;;;6.40;;
75289;SDS011;63883;48.996;20.804;2023-03-24T05:38:13;14.63;;;7.97;;
75289;SDS011;63883;48.996;20.804;2023-03-24T05:40:39;21.90;;;11.88;;
75289;SDS011;63883;48.996;20.804;2023-03-24T05:43:05;33.45;;;16.42;;
75289;SDS011;63883;48.996;20.804;2023-03-24T05:45:32;17.70;;;10.88;;
75289;SDS011;63883;48.996;20.804;2023-03-24T05:47:58;17.73;;;10.32;;
75289;SDS011;63883;48.996;20.804;2023-03-24T05:50:24;16.52;;;9.30;;
75289;SDS011;63883;48.996;20.804;2023-03-24T05:52:50;14.57;;;8.70;;
75289;SDS011;63883;48.996;20.804;2023-03-24T05:55:17;15.40;;;8.82;;
75289;SDS011;63883;48.996;20.804;2023-03-24T05:57:43;13.73;;;7.88;;
75289;SDS011;63883;48.996;20.804;2023-03-24T06:00:10;12.32;;;7.80;;
75289;SDS011;63883;48.996;20.804;2023-03-24T06:02:44;12.45;;;8.27;;
75289;SDS011;63883;48.996;20.804;2023-03-24T06:05:11;11.85;;;6.93;;
75289;SDS011;63883;48.996;20.804;2023-03-24T06:07:37;11.82;;;7.00;;
75289;SDS011;63883;48.996;20.804;2023-03-24T06:10:04;11.15;;;7.38;;
75289;SDS011;63883;48.996;20.804;2023-03-24T06:12:32;14.90;;;7.68;;
75289;SDS011;63883;48.996;20.804;2023-03-24T06:14:58;13.18;;;7.90;;
75289;SDS011;63883;48.996;20.804;2023-03-24T06:17:25;11.32;;;7.00;;
75289;SDS011;63883;48.996;20.804;2023-03-24T06:19:53;12.35;;;7.35;;
75289;SDS011;63883;48.996;20.804;2023-03-24T06:22:27;13.63;;;7.90;;
75289;SDS011;63883;48.996;20.804;2023-03-24T06:24:54;13.43;;;8.00;;
75289;SDS011;63883;48.996;20.804;2023-03-24T06:27:25;14.98;;;7.68;;
75289;SDS011;63883;48.996;20.804;2023-03-24T06:29:57;18.75;;;7.38;;
75289;SDS011;63883;48.996;20.804;2023-03-24T06:32:24;10.70;;;6.55;;
75289;SDS011;63883;48.996;20.804;2023-03-24T06:34:50;11.77;;;7.25;;
75289;SDS011;63883;48.996;20.804;2023-03-24T06:37:17;11.85;;;7.25;;
75289;SDS011;63883;48.996;20.804;2023-03-24T06:39:45;10.38;;;6.68;;
75289;SDS011;63883;48.996;20.804;2023-03-24T06:42:11;14.00;;;8.40;;
75289;SDS011;63883;48.996;20.804;2023-03-24T06:44:37;12.38;;;7.30;;
75289;SDS011;63883;48.996;20.804;2023-03-24T06:47:03;11.35;;;7.03;;
75289;SDS011;63883;48.996;20.804;2023-03-24T06:49:29;11.43;;;6.55;;
75289;SDS011;63883;48.996;20.804;2023-03-24T06:51:55;14.05;;;7.32;;
75289;SDS011;63883;48.996;20.804;2023-03-24T06:54:21;16.80;;;8.93;;
75289;SDS011;63883;48.996;20.804;2023-03-24T06:56:47;21.45;;;10.65;;
75289;SDS011;63883;48.996;20.804;2023-03-24T06:59:12;23.27;;;9.75;;
75289;SDS011;63883;48.996;20.804;2023-03-24T07:01:38;17.17;;;9.98;;
75289;SDS011;63883;48.996;20.804;2023-03-24T07:04:04;18.83;;;10.10;;
75289;SDS011;63883;48.996;20.804;2023-03-24T07:06:30;16.65;;;10.18;;
75289;SDS011;63883;48.996;20.804;2023-03-24T07:08:56;14.95;;;9.38;;
75289;SDS011;63883;48.996;20.804;2023-03-24T07:11:22;13.52;;;8.80;;
75289;SDS011;63883;48.996;20.804;2023-03-24T07:13:48;15.07;;;8.68;;
75289;SDS011;63883;48.996;20.804;2023-03-24T07:16:14;14.77;;;8.95;;
75289;SDS011;63883;48.996;20.804;2023-03-24T07:18:40;16.13;;;9.52;;
75289;SDS011;63883;48.996;20.804;2023-03-24T07:21:06;19.25;;;9.07;;
75289;SDS011;63883;48.996;20.804;2023-03-24T07:23:32;16.23;;;9.02;;
75289;SDS011;63883;48.996;20.804;2023-03-24T07:25:58;16.65;;;9.18;;
75289;SDS011;63883;48.996;20.804;2023-03-24T07:28:24;13.38;;;8.75;;
75289;SDS011;63883;48.996;20.804;2023-03-24T07:30:50;12.60;;;8.57;;
75289;SDS011;63883;48.996;20.804;2023-03-24T07:33:15;12.75;;;8.13;;
75289;SDS011;63883;48.996;20.804;2023-03-24T07:35:41;13.23;;;8.32;;
75289;SDS011;63883;48.996;20.804;2023-03-24T07:38:07;13.20;;;8.48;;
75289;SDS011;63883;48.996;20.804;2023-03-24T07:40:35;13.82;;;8.50;;
75289;SDS011;63883;48.996;20.804;2023-03-24T07:43:01;13.80;;;9.00;;
75289;SDS011;63883;48.996;20.804;2023-03-24T07:45:29;13.35;;;8.40;;
75289;SDS011;63883;48.996;20.804;2023-03-24T07:47:55;12.00;;;8.48;;
75289;SDS011;63883;48.996;20.804;2023-03-24T07:50:27;14.27;;;8.25;;
75289;SDS011;63883;48.996;20.804;2023-03-24T07:52:53;14.63;;;8.15;;
75289;SDS011;63883;48.996;20.804;2023-03-24T07:55:19;11.43;;;8.07;;
75289;SDS011;63883;48.996;20.804;2023-03-24T07:57:45;14.45;;;7.95;;
75289;SDS011;63883;48.996;20.804;2023-03-24T08:00:13;15.18;;;8.27;;
75289;SDS011;63883;48.996;20.804;2023-03-24T08:02:43;13.13;;;7.38;;
75289;SDS011;63883;48.996;20.804;2023-03-24T08:07:38;11.13;;;6.82;;
75289;SDS011;63883;48.996;20.804;2023-03-24T08:10:09;12.40;;;7.05;;
75289;SDS011;63883;48.996;20.804;2023-03-24T08:12:38;11.80;;;6.90;;
75289;SDS011;63883;48.996;20.804;2023-03-24T08:15:05;11.98;;;6.68;;
75289;SDS011;63883;48.996;20.804;2023-03-24T08:17:32;10.13;;;7.03;;
75289;SDS011;63883;48.996;20.804;2023-03-24T08:19:58;14.00;;;7.60;;
75289;SDS011;63883;48.996;20.804;2023-03-24T08:22:23;16.60;;;7.75;;
75289;SDS011;63883;48.996;20.804;2023-03-24T08:24:49;12.20;;;8.30;;
75289;SDS011;63883;48.996;20.804;2023-03-24T08:27:15;16.23;;;10.00;;
75289;SDS011;63883;48.996;20.804;2023-03-24T08:29:42;19.75;;;10.73;;
75289;SDS011;63883;48.996;20.804;2023-03-24T08:32:07;15.93;;;10.15;;
75289;SDS011;63883;48.996;20.804;2023-03-24T08:34:34;16.77;;;9.85;;
75289;SDS011;63883;48.996;20.804;2023-03-24T08:36:59;14.25;;;9.23;;
75289;SDS011;63883;48.996;20.804;2023-03-24T08:39:25;13.40;;;8.05;;
75289;SDS011;63883;48.996;20.804;2023-03-24T08:41:51;14.10;;;7.97;;
75289;SDS011;63883;48.996;20.804;2023-03-24T08:44:19;15.32;;;8.00;;
75289;SDS011;63883;48.996;20.804;2023-03-24T08:46:45;14.70;;;8.27;;
75289;SDS011;63883;48.996;20.804;2023-03-24T08:49:11;13.02;;;7.60;;
75289;SDS011;63883;48.996;20.804;2023-03-24T08:51:36;12.95;;;7.55;;
75289;SDS011;63883;48.996;20.804;2023-03-24T08:54:03;11.07;;;7.20;;
75289;SDS011;63883;48.996;20.804;2023-03-24T08:56:28;11.43;;;6.70;;
75289;SDS011;63883;48.996;20.804;2023-03-24T08:58:54;11.63;;;6.90;;
75289;SDS011;63883;48.996;20.804;2023-03-24T09:01:22;9.10;;;6.15;;
75289;SDS011;63883;48.996;20.804;2023-03-24T09:03:48;6.53;;;5.60;;
75289;SDS011;63883;48.996;20.804;2023-03-24T09:06:14;10.00;;;6.00;;
75289;SDS011;63883;48.996;20.804;2023-03-24T09:08:40;10.32;;;6.43;;
75289;SDS011;63883;48.996;20.804;2023-03-24T09:11:06;7.68;;;5.13;;
75289;SDS011;63883;48.996;20.804;2023-03-24T09:13:39;6.35;;;5.63;;
75289;SDS011;63883;48.996;20.804;2023-03-24T09:16:05;8.45;;;5.47;;
75289;SDS011;63883;48.996;20.804;2023-03-24T09:18:31;6.07;;;4.85;;
75289;SDS011;63883;48.996;20.804;2023-03-24T09:20:57;10.35;;;5.60;;
75289;SDS011;63883;48.996;20.804;2023-03-24T09:23:23;8.25;;;5.28;;
75289;SDS011;63883;48.996;20.804;2023-03-24T09:25:52;8.55;;;5.47;;
75289;SDS011;63883;48.996;20.804;2023-03-24T09:28:20;15.57;;;6.35;;
75289;SDS011;63883;48.996;20.804;2023-03-24T09:30:46;10.18;;;5.57;;
75289;SDS011;63883;48.996;20.804;2023-03-24T09:33:12;6.97;;;4.82;;
75289;SDS011;63883;48.996;20.804;2023-03-24T09:35:38;9.00;;;5.32;;
75289;SDS011;63883;48.996;20.804;2023-03-24T09:38:05;7.03;;;5.03;;
75289;SDS011;63883;48.996;20.804;2023-03-24T09:40:32;10.25;;;5.50;;
75289;SDS011;63883;48.996;20.804;2023-03-24T09:43:11;6.93;;;4.97;;
75289;SDS011;63883;48.996;20.804;2023-03-24T09:45:50;6.95;;;5.03;;
75289;SDS011;63883;48.996;20.804;2023-03-24T09:48:30;8.07;;;5.40;;
75289;SDS011;63883;48.996;20.804;2023-03-24T09:51:04;10.60;;;5.32;;
75289;SDS011;63883;48.996;20.804;2023-03-24T09:56:27;7.18;;;5.43;;
75289;SDS011;63883;48.996;20.804;2023-03-24T09:59:03;6.53;;;5.00;;
75289;SDS011;63883;48.996;20.804;2023-03-24T10:01:32;6.88;;;5.22;;
75289;SDS011;63883;48.996;20.804;2023-03-24T10:03:59;5.72;;;4.53;;
75289;SDS011;63883;48.996;20.804;2023-03-24T10:06:37;7.00;;;4.82;;
75289;SDS011;63883;48.996;20.804;2023-03-24T10:15:05;6.93;;;4.53;;
75289;SDS011;63883;48.996;20.804;2023-03-24T10:28:43;5.32;;;4.82;;
75289;SDS011;63883;48.996;20.804;2023-03-24T10:31:12;8.52;;;5.20;;
75289;SDS011;63883;48.996;20.804;2023-03-24T10:33:41;5.18;;;4.65;;
75289;SDS011;63883;48.996;20.804;2023-03-24T10:36:10;9.40;;;4.57;;
75289;SDS011;63883;48.996;20.804;2023-03-24T10:38:38;5.75;;;5.00;;
75289;SDS011;63883;48.996;20.804;2023-03-24T10:41:05;5.60;;;5.00;;
75289;SDS011;63883;48.996;20.804;2023-03-24T10:43:31;6.50;;;4.88;;
75289;SDS011;63883;48.996;20.804;2023-03-24T10:45:57;5.30;;;4.70;;
75289;SDS011;63883;48.996;20.804;2023-03-24T10:48:45;5.28;;;4.15;;
75289;SDS011;63883;48.996;20.804;2023-03-24T10:51:20;6.65;;;4.90;;
75289;SDS011;63883;48.996;20.804;2023-03-24T10:53:47;5.05;;;4.32;;
75289;SDS011;63883;48.996;20.804;2023-03-24T10:56:14;7.32;;;4.78;;
75289;SDS011;63883;48.996;20.804;2023-03-24T10:59:02;8.43;;;4.60;;
75289;SDS011;63883;48.996;20.804;2023-03-24T11:01:30;6.50;;;4.55;;
75289;SDS011;63883;48.996;20.804;2023-03-24T11:04:00;5.05;;;4.55;;
75289;SDS011;63883;48.996;20.804;2023-03-24T11:06:29;5.93;;;4.80;;
75289;SDS011;63883;48.996;20.804;2023-03-24T11:09:09;4.97;;;4.43;;
75289;SDS011;63883;48.996;20.804;2023-03-24T11:11:43;5.65;;;4.30;;
75289;SDS011;63883;48.996;20.804;2023-03-24T11:14:22;6.22;;;4.53;;
75289;SDS011;63883;48.996;20.804;2023-03-24T11:16:51;5.28;;;4.50;;
75289;SDS011;63883;48.996;20.804;2023-03-24T11:19:25;4.40;;;3.92;;
75289;SDS011;63883;48.996;20.804;2023-03-24T11:21:54;7.68;;;4.68;;
75289;SDS011;63883;48.996;20.804;2023-03-24T11:24:24;5.07;;;3.85;;
75289;SDS011;63883;48.996;20.804;2023-03-24T11:31:56;4.95;;;3.92;;
75289;SDS011;63883;48.996;20.804;2023-03-24T11:34:27;4.70;;;4.03;;
75289;SDS011;63883;48.996;20.804;2023-03-24T11:37:13;6.10;;;4.05;;
75289;SDS011;63883;48.996;20.804;2023-03-24T11:39:40;4.50;;;4.03;;
75289;SDS011;63883;48.996;20.804;2023-03-24T11:52:41;5.18;;;4.28;;
75289;SDS011;63883;48.996;20.804;2023-03-24T11:55:16;4.78;;;4.13;;
75289;SDS011;63883;48.996;20.804;2023-03-24T11:57:51;5.07;;;3.95;;
75289;SDS011;63883;48.996;20.804;2023-03-24T12:00:32;5.13;;;4.63;;
75289;SDS011;63883;48.996;20.804;2023-03-24T12:03:13;6.03;;;4.95;;
75289;SDS011;63883;48.996;20.804;2023-03-24T12:05:49;5.63;;;4.72;;
75289;SDS011;63883;48.996;20.804;2023-03-24T12:08:30;6.70;;;5.20;;
75289;SDS011;63883;48.996;20.804;2023-03-24T12:13:35;6.50;;;4.63;;
75289;SDS011;63883;48.996;20.804;2023-03-24T12:16:10;5.75;;;5.15;;
75289;SDS011;63883;48.996;20.804;2023-03-24T12:21:42;6.30;;;5.05;;
75289;SDS011;63883;48.996;20.804;2023-03-24T12:26:41;5.97;;;4.68;;
75289;SDS011;63883;48.996;20.804;2023-03-24T12:37:16;6.90;;;5.20;;
75289;SDS011;63883;48.996;20.804;2023-03-24T12:40:00;7.47;;;5.63;;
75289;SDS011;63883;48.996;20.804;2023-03-24T12:42:38;6.18;;;5.40;;
75289;SDS011;63883;48.996;20.804;2023-03-24T12:45:17;7.10;;;5.35;;
75289;SDS011;63883;48.996;20.804;2023-03-24T12:48:14;5.72;;;5.03;;
75289;SDS011;63883;48.996;20.804;2023-03-24T12:53:34;6.47;;;5.63;;
75289;SDS011;63883;48.996;20.804;2023-03-24T12:58:43;7.55;;;5.43;;
75289;SDS011;63883;48.996;20.804;2023-03-24T13:01:22;6.25;;;5.50;;
75289;SDS011;63883;48.996;20.804;2023-03-24T13:04:05;7.50;;;5.65;;
75289;SDS011;63883;48.996;20.804;2023-03-24T13:06:33;8.05;;;5.88;;
75289;SDS011;63883;48.996;20.804;2023-03-24T13:12:09;10.52;;;5.80;;
75289;SDS011;63883;48.996;20.804;2023-03-24T13:15:02;7.32;;;5.78;;
75289;SDS011;63883;48.996;20.804;2023-03-24T13:17:38;7.30;;;6.05;;
75289;SDS011;63883;48.996;20.804;2023-03-24T13:22:36;7.00;;;5.72;;
75289;SDS011;63883;48.996;20.804;2023-03-24T13:25:03;7.57;;;5.32;;
75289;SDS011;63883;48.996;20.804;2023-03-24T13:27:44;7.68;;;5.63;;
75289;SDS011;63883;48.996;20.804;2023-03-24T13:32:51;8.20;;;5.00;;
75289;SDS011;63883;48.996;20.804;2023-03-24T13:35:27;7.13;;;5.30;;
75289;SDS011;63883;48.996;20.804;2023-03-24T13:38:33;6.97;;;5.20;;
75289;SDS011;63883;48.996;20.804;2023-03-24T13:41:03;8.60;;;5.57;;
75289;SDS011;63883;48.996;20.804;2023-03-24T13:43:32;6.30;;;5.60;;
75289;SDS011;63883;48.996;20.804;2023-03-24T13:46:02;7.55;;;5.70;;
75289;SDS011;63883;48.996;20.804;2023-03-24T13:49:04;6.75;;;5.85;;
75289;SDS011;63883;48.996;20.804;2023-03-24T13:51:24;6.70;;;5.55;;
75289;SDS011;63883;48.996;20.804;2023-03-24T13:56:23;6.03;;;5.43;;
75289;SDS011;63883;48.996;20.804;2023-03-24T14:14:29;6.13;;;5.07;;
75289;SDS011;63883;48.996;20.804;2023-03-24T14:19:42;6.45;;;5.30;;
75289;SDS011;63883;48.996;20.804;2023-03-24T14:24:53;6.20;;;5.60;;
75289;SDS011;63883;48.996;20.804;2023-03-24T14:30:03;6.20;;;5.57;;
75289;SDS011;63883;48.996;20.804;2023-03-24T14:32:39;7.18;;;6.22;;
75289;SDS011;63883;48.996;20.804;2023-03-24T14:37:54;8.25;;;6.00;;
75289;SDS011;63883;48.996;20.804;2023-03-24T14:40:24;7.03;;;5.65;;
75289;SDS011;63883;48.996;20.804;2023-03-24T14:42:53;8.07;;;5.78;;
75289;SDS011;63883;48.996;20.804;2023-03-24T14:48:02;6.90;;;5.93;;
75289;SDS011;63883;48.996;20.804;2023-03-24T14:50:40;7.18;;;5.88;;
75289;SDS011;63883;48.996;20.804;2023-03-24T14:53:11;7.15;;;6.10;;
75289;SDS011;63883;48.996;20.804;2023-03-24T14:55:43;6.30;;;5.47;;
75289;SDS011;63883;48.996;20.804;2023-03-24T14:58:15;8.52;;;5.93;;
75289;SDS011;63883;48.996;20.804;2023-03-24T15:00:46;7.05;;;5.53;;
75289;SDS011;63883;48.996;20.804;2023-03-24T15:03:18;8.27;;;5.72;;
75289;SDS011;63883;48.996;20.804;2023-03-24T15:05:44;7.03;;;5.80;;
75289;SDS011;63883;48.996;20.804;2023-03-24T15:08:14;7.18;;;5.75;;
75289;SDS011;63883;48.996;20.804;2023-03-24T15:10:49;8.48;;;5.93;;
75289;SDS011;63883;48.996;20.804;2023-03-24T15:18:34;7.47;;;5.60;;
75289;SDS011;63883;48.996;20.804;2023-03-24T15:21:12;10.25;;;6.95;;
75289;SDS011;63883;48.996;20.804;2023-03-24T15:23:38;12.45;;;8.57;;
75289;SDS011;63883;48.996;20.804;2023-03-24T15:26:10;26.45;;;22.10;;
75289;SDS011;63883;48.996;20.804;2023-03-24T15:28:37;34.45;;;30.73;;
75289;SDS011;63883;48.996;20.804;2023-03-24T15:31:03;29.88;;;25.25;;
75289;SDS011;63883;48.996;20.804;2023-03-24T15:33:29;17.55;;;15.43;;
75289;SDS011;63883;48.996;20.804;2023-03-24T15:36:14;8.20;;;6.30;;
75289;SDS011;63883;48.996;20.804;2023-03-24T15:38:48;8.30;;;5.53;;
75289;SDS011;63883;48.996;20.804;2023-03-24T15:41:17;9.20;;;6.03;;
75289;SDS011;63883;48.996;20.804;2023-03-24T15:43:50;7.40;;;5.80;;
75289;SDS011;63883;48.996;20.804;2023-03-24T15:46:19;8.15;;;6.35;;
75289;SDS011;63883;48.996;20.804;2023-03-24T15:48:49;7.95;;;6.13;;
75289;SDS011;63883;48.996;20.804;2023-03-24T15:51:16;8.90;;;6.75;;
75289;SDS011;63883;48.996;20.804;2023-03-24T15:53:53;7.60;;;6.15;;
75289;SDS011;63883;48.996;20.804;2023-03-24T15:56:24;7.88;;;5.93;;
75289;SDS011;63883;48.996;20.804;2023-03-24T15:58:54;8.77;;;6.05;;
75289;SDS011;63883;48.996;20.804;2023-03-24T16:01:25;8.13;;;6.03;;
75289;SDS011;63883;48.996;20.804;2023-03-24T16:03:55;7.80;;;6.47;;
75289;SDS011;63883;48.996;20.804;2023-03-24T16:06:26;12.93;;;9.65;;
75289;SDS011;63883;48.996;20.804;2023-03-24T16:09:04;12.88;;;9.52;;
75289;SDS011;63883;48.996;20.804;2023-03-24T16:11:32;10.52;;;7.93;;
75289;SDS011;63883;48.996;20.804;2023-03-24T16:13:58;8.80;;;7.28;;
75289;SDS011;63883;48.996;20.804;2023-03-24T16:16:26;8.00;;;6.95;;
75289;SDS011;63883;48.996;20.804;2023-03-24T16:18:54;10.32;;;7.05;;
75289;SDS011;63883;48.996;20.804;2023-03-24T16:21:24;79.93;;;36.38;;
75289;SDS011;63883;48.996;20.804;2023-03-24T16:23:52;42.20;;;22.08;;
75289;SDS011;63883;48.996;20.804;2023-03-24T16:26:23;22.52;;;13.57;;
75289;SDS011;63883;48.996;20.804;2023-03-24T16:28:54;23.98;;;15.43;;
75289;SDS011;63883;48.996;20.804;2023-03-24T16:31:29;16.98;;;10.75;;
75289;SDS011;63883;48.996;20.804;2023-03-24T16:33:57;39.65;;;20.98;;
75289;SDS011;63883;48.996;20.804;2023-03-24T16:36:24;40.63;;;20.33;;
75289;SDS011;63883;48.996;20.804;2023-03-24T16:38:51;40.63;;;19.25;;
75289;SDS011;63883;48.996;20.804;2023-03-24T16:41:17;53.72;;;30.85;;
75289;SDS011;63883;48.996;20.804;2023-03-24T16:43:43;41.92;;;23.83;;
75289;SDS011;63883;48.996;20.804;2023-03-24T16:46:17;46.80;;;26.45;;
75289;SDS011;63883;48.996;20.804;2023-03-24T16:48:46;52.55;;;28.38;;
75289;SDS011;63883;48.996;20.804;2023-03-24T16:51:13;46.53;;;24.92;;
75289;SDS011;63883;48.996;20.804;2023-03-24T16:53:40;51.05;;;23.65;;
75289;SDS011;63883;48.996;20.804;2023-03-24T16:56:07;49.72;;;24.35;;
75289;SDS011;63883;48.996;20.804;2023-03-24T16:58:33;68.90;;;31.95;;
75289;SDS011;63883;48.996;20.804;2023-03-24T17:00:59;80.15;;;36.75;;
75289;SDS011;63883;48.996;20.804;2023-03-24T17:03:25;72.38;;;33.90;;
75289;SDS011;63883;48.996;20.804;2023-03-24T17:05:54;60.38;;;29.70;;
75289;SDS011;63883;48.996;20.804;2023-03-24T17:08:21;42.15;;;22.02;;
75289;SDS011;63883;48.996;20.804;2023-03-24T17:10:48;39.58;;;20.90;;
75289;SDS011;63883;48.996;20.804;2023-03-24T17:13:23;46.97;;;22.83;;
75289;SDS011;63883;48.996;20.804;2023-03-24T17:15:50;54.40;;;23.55;;
75289;SDS011;63883;48.996;20.804;2023-03-24T17:18:17;64.68;;;27.33;;
75289;SDS011;63883;48.996;20.804;2023-03-24T17:20:43;57.15;;;26.20;;
75289;SDS011;63883;48.996;20.804;2023-03-24T17:23:10;54.80;;;24.35;;
75289;SDS011;63883;48.996;20.804;2023-03-24T17:25:40;76.78;;;32.80;;
75289;SDS011;63883;48.996;20.804;2023-03-24T17:28:10;16.08;;;10.77;;
75289;SDS011;63883;48.996;20.804;2023-03-24T17:30:38;11.55;;;8.68;;
75289;SDS011;63883;48.996;20.804;2023-03-24T17:33:03;10.70;;;7.65;;